createdAt,value
2018-09-04T00:00:22.944Z,64.23
2018-09-04T00:02:50.909Z,64.00
2018-09-04T00:05:18.839Z,66.47
2018-09-04T00:07:46.812Z,65.47
2018-09-04T00:10:15.233Z,66.17
2018-09-04T00:12:43.196Z,65.80
2018-09-04T00:15:11.191Z,65.17
2018-09-04T00:17:39.168Z,62.80
2018-09-04T00:20:07.109Z,68.43
2018-09-04T00:22:35.103Z,70.93
2018-09-04T00:25:03.052Z,67.90
2018-09-04T00:27:31.032Z,67.73
2018-09-04T00:29:59.011Z,65.63
2018-09-04T00:32:27.019Z,63.13
2018-09-04T00:34:54.998Z,72.63
2018-09-04T00:37:22.958Z,75.47
2018-09-04T00:39:51.279Z,63.37
2018-09-04T00:42:19.241Z,63.13
2018-09-04T00:44:48.016Z,69.93
2018-09-04T00:47:15.978Z,63.93
2018-09-04T00:49:43.943Z,63.17
2018-09-04T00:52:11.928Z,61.47
2018-09-04T00:54:39.985Z,64.63
2018-09-04T00:57:07.999Z,66.57
2018-09-04T00:59:35.967Z,68.20
2018-09-04T01:02:03.920Z,67.20
2018-09-04T01:04:31.894Z,71.10
2018-09-04T01:06:59.904Z,65.77
2018-09-04T01:09:27.847Z,71.50
2018-09-04T01:11:55.813Z,68.83
2018-09-04T01:14:23.856Z,73.83
2018-09-04T01:16:51.801Z,67.00
2018-09-04T01:19:19.788Z,70.30
2018-09-04T01:21:47.814Z,58.43
2018-09-04T01:24:15.921Z,67.63
2018-09-04T01:26:43.978Z,66.97
2018-09-04T01:29:12.112Z,71.03
2018-09-04T01:31:40.204Z,58.00
2018-09-04T01:34:08.216Z,67.33
2018-09-04T01:36:36.187Z,69.40
2018-09-04T01:39:05.241Z,66.77
2018-09-04T01:41:33.203Z,71.63
2018-09-04T01:44:01.172Z,67.10
2018-09-04T01:46:29.128Z,71.13
2018-09-04T01:48:57.077Z,65.00
2018-09-04T01:51:25.057Z,64.43
2018-09-04T01:53:53.021Z,70.10
2018-09-04T01:56:21.029Z,60.90
2018-09-04T01:58:52.779Z,66.77
2018-09-04T02:01:20.768Z,67.97
2018-09-04T02:03:48.710Z,72.00
2018-09-04T02:06:16.678Z,67.60
2018-09-04T02:08:44.643Z,60.57
2018-09-04T02:11:12.602Z,61.87
2018-09-04T02:13:40.691Z,72.80
2018-09-04T02:16:08.668Z,66.23
2018-09-04T02:18:36.704Z,65.80
2018-09-04T02:21:04.721Z,64.67
2018-09-04T02:23:32.784Z,82.03
2018-09-04T02:26:00.922Z,68.47
2018-09-04T02:28:28.870Z,78.03
2018-09-04T02:30:56.825Z,66.47
2018-09-04T02:33:24.780Z,71.43
2018-09-04T02:35:52.817Z,71.30
2018-09-04T02:38:20.796Z,69.30
2018-09-04T02:40:48.774Z,73.87
2018-09-04T02:43:16.745Z,70.93
2018-09-04T02:45:44.739Z,70.83
2018-09-04T02:48:12.679Z,69.40
2018-09-04T02:50:40.980Z,77.70
2018-09-04T02:53:08.968Z,66.73
2018-09-04T02:55:36.947Z,68.57
2018-09-04T02:58:05.032Z,64.00
2018-09-04T03:00:32.986Z,72.60
2018-09-04T03:03:00.956Z,73.67
2018-09-04T03:05:28.893Z,72.90
2018-09-04T03:07:56.860Z,76.73
2018-09-04T03:10:24.927Z,74.23
2018-09-04T03:12:52.871Z,70.93
2018-09-04T03:15:20.830Z,71.67
2018-09-04T03:17:48.783Z,71.87
2018-09-04T03:20:16.716Z,74.07
2018-09-04T03:22:44.708Z,71.80
2018-09-04T03:25:12.753Z,81.87
2018-09-04T03:27:40.783Z,76.83
2018-09-04T03:30:08.981Z,82.03
2018-09-04T03:32:36.952Z,78.50
2018-09-04T03:35:04.933Z,80.27
2018-09-04T03:37:32.892Z,88.37
2018-09-04T03:40:00.843Z,77.30
2018-09-04T03:42:28.823Z,80.27
2018-09-04T03:44:56.796Z,77.63
2018-09-04T03:47:24.752Z,76.87
2018-09-04T03:49:52.732Z,70.43
2018-09-04T03:52:20.729Z,74.07
2018-09-04T03:54:48.723Z,69.63
2018-09-04T03:57:16.689Z,69.63
2018-09-04T03:59:44.656Z,72.37
2018-09-04T04:02:12.618Z,70.57
2018-09-04T04:04:40.675Z,78.27
2018-09-04T04:07:08.923Z,75.57
2018-09-04T04:09:37.045Z,75.33
2018-09-04T04:12:05.122Z,81.50
2018-09-04T04:14:33.039Z,72.93
2018-09-04T04:17:00.964Z,70.47
2018-09-04T04:19:28.919Z,75.83
2018-09-04T04:21:56.969Z,84.73
2018-09-04T04:24:24.979Z,77.47
2018-09-04T04:26:52.907Z,87.50
2018-09-04T04:29:20.853Z,76.97
2018-09-04T04:31:48.819Z,81.07
2018-09-04T04:34:16.792Z,82.70
2018-09-04T04:36:44.750Z,79.53
2018-09-04T04:39:12.676Z,73.60
2018-09-04T04:41:40.763Z,80.73
2018-09-04T04:44:08.904Z,76.57
2018-09-04T04:46:37.503Z,79.90
2018-09-04T04:49:05.630Z,77.80
2018-09-04T04:51:35.748Z,76.27
2018-09-04T04:54:04.005Z,81.07
2018-09-04T04:56:36.860Z,75.77
2018-09-04T04:59:04.835Z,83.07
2018-09-04T05:01:32.777Z,77.00
2018-09-04T05:04:01.007Z,76.77
2018-09-04T05:06:29.201Z,87.20
2018-09-04T05:08:57.196Z,84.87
2018-09-04T05:11:25.227Z,94.07
2018-09-04T05:13:53.149Z,80.47
2018-09-04T05:16:21.076Z,84.33
2018-09-04T05:18:49.040Z,82.43
2018-09-04T05:21:16.957Z,85.07
2018-09-04T05:23:45.056Z,82.40
2018-09-04T05:26:12.997Z,91.77
2018-09-04T05:28:41.021Z,95.27
2018-09-04T05:31:08.963Z,96.90
2018-09-04T05:33:40.092Z,86.50
2018-09-04T05:36:08.023Z,91.10
2018-09-04T05:38:36.092Z,85.07
2018-09-04T05:41:03.992Z,85.93
2018-09-04T05:43:38.778Z,88.37
2018-09-04T05:46:17.973Z,98.83
2018-09-04T05:48:45.912Z,81.63
2018-09-04T05:51:13.888Z,95.60
2018-09-04T05:53:41.842Z,86.63
2018-09-04T05:56:09.823Z,93.37
2018-09-04T05:58:37.801Z,97.13
2018-09-04T06:01:05.931Z,98.10
2018-09-04T06:03:33.922Z,89.53
2018-09-04T06:06:01.867Z,99.70
2018-09-04T06:08:29.948Z,97.33
2018-09-04T06:10:57.888Z,88.37
2018-09-04T06:13:25.945Z,82.20
2018-09-04T06:15:53.905Z,85.83
2018-09-04T06:18:21.861Z,88.10
2018-09-04T06:20:49.780Z,81.63
2018-09-04T06:23:17.867Z,96.33
2018-09-04T06:25:45.987Z,77.80
2018-09-04T06:28:13.952Z,76.33
2018-09-04T06:30:41.991Z,72.60
2018-09-04T06:33:09.931Z,77.87
2018-09-04T06:35:37.883Z,81.50
2018-09-04T06:38:05.825Z,69.67
2018-09-04T06:40:33.777Z,72.30
2018-09-04T06:43:01.803Z,77.57
2018-09-04T06:45:29.772Z,70.47
2018-09-04T06:47:57.756Z,75.43
2018-09-04T06:50:25.822Z,73.50
2018-09-04T06:52:53.929Z,80.53
2018-09-04T06:55:21.864Z,79.20
2018-09-04T06:57:49.843Z,78.57
2018-09-04T07:00:17.760Z,76.20
2018-09-04T07:02:45.714Z,72.40
2018-09-04T07:05:13.710Z,83.17
2018-09-04T07:07:42.148Z,79.47
2018-09-04T07:10:10.648Z,83.63
2018-09-04T07:12:39.004Z,82.93
2018-09-04T07:15:07.100Z,85.07
2018-09-04T07:17:35.035Z,73.90
2018-09-04T07:20:02.970Z,75.07
2018-09-04T07:22:30.917Z,81.60
2018-09-04T07:24:58.856Z,83.07
2018-09-04T07:27:26.845Z,78.30
2018-09-04T07:29:54.769Z,77.57
2018-09-04T07:32:22.755Z,93.80
2018-09-04T07:34:50.750Z,83.83
2018-09-04T07:37:18.748Z,86.30
2018-09-04T07:39:46.711Z,87.20
2018-09-04T07:42:14.676Z,92.33
2018-09-04T07:44:42.607Z,85.80
2018-09-04T07:47:11.592Z,88.10
2018-09-04T07:49:39.536Z,77.93
2018-09-04T07:52:07.534Z,89.77
2018-09-04T07:54:35.475Z,78.07
2018-09-04T07:57:03.411Z,83.37
2018-09-04T07:59:31.573Z,80.83
2018-09-04T08:01:59.632Z,92.50
2018-09-04T08:04:27.544Z,94.30
2018-09-04T08:06:55.511Z,93.70
2018-09-04T08:09:23.488Z,89.47
2018-09-04T08:11:51.404Z,86.10
2018-09-04T08:14:19.351Z,86.83
2018-09-04T08:16:47.330Z,80.07
2018-09-04T08:19:15.270Z,86.83
2018-09-04T08:21:43.226Z,94.13
2018-09-04T08:24:11.206Z,93.97
2018-09-04T08:26:39.148Z,89.40
2018-09-04T08:29:10.052Z,94.20
2018-09-04T08:31:38.065Z,88.70
2018-09-04T08:34:06.094Z,88.50
2018-09-04T08:36:34.131Z,91.33
2018-09-04T08:39:02.084Z,91.07
2018-09-04T08:41:31.086Z,88.00
2018-09-04T08:43:59.138Z,97.77
2018-09-04T08:46:27.062Z,98.73
2018-09-04T08:48:54.971Z,86.40
2018-09-04T08:51:22.929Z,90.40
2018-09-04T08:53:50.865Z,94.13
2018-09-04T08:56:18.793Z,96.00
2018-09-04T08:58:46.864Z,91.63
2018-09-04T09:01:14.764Z,88.00
2018-09-04T09:03:42.832Z,97.07
2018-09-04T09:06:10.816Z,93.90
2018-09-04T09:08:38.737Z,92.17
2018-09-04T09:11:06.668Z,91.33
2018-09-04T09:13:34.624Z,91.63
2018-09-04T09:16:02.587Z,96.27
2018-09-04T09:18:30.520Z,96.13
2018-09-04T09:20:58.492Z,100.37
2018-09-04T09:23:26.438Z,97.43
2018-09-04T09:25:54.372Z,99.93
2018-09-04T09:28:22.434Z,94.77
2018-09-04T09:30:50.385Z,100.27
2018-09-04T09:33:18.344Z,95.07
2018-09-04T09:35:46.301Z,97.93
2018-09-04T09:38:14.251Z,97.80
2018-09-04T09:40:42.244Z,94.00
2018-09-04T09:43:10.548Z,97.53
2018-09-04T09:45:38.504Z,87.17
2018-09-04T09:48:06.505Z,92.47
2018-09-04T09:50:34.619Z,99.47
2018-09-04T09:53:02.560Z,94.67
2018-09-04T09:55:30.450Z,93.10
2018-09-04T09:57:58.426Z,91.83
2018-09-04T10:00:31.921Z,87.40
2018-09-04T10:03:04.706Z,90.00
2018-09-04T10:05:33.196Z,91.70
2018-09-04T10:08:01.282Z,88.97
2018-09-04T10:10:29.202Z,89.13
2018-09-04T10:12:57.152Z,87.67
2018-09-04T10:15:25.107Z,88.50
2018-09-04T10:17:53.071Z,80.17
2018-09-04T10:20:21.020Z,77.67
2018-09-04T10:22:49.024Z,77.87
2018-09-04T10:25:16.981Z,71.73
2018-09-04T10:27:44.936Z,79.73
2018-09-04T10:30:14.543Z,75.87
2018-09-04T10:32:50.624Z,71.37
2018-09-04T10:35:18.958Z,64.17
2018-09-04T10:37:47.305Z,64.47
2018-09-04T10:40:20.824Z,55.93
2018-09-04T10:42:48.775Z,57.07
2018-09-04T10:45:22.142Z,58.03
2018-09-04T10:47:50.254Z,55.73
2018-09-04T10:50:18.204Z,52.67
2018-09-04T10:52:46.206Z,55.23
2018-09-04T10:55:14.179Z,54.20
2018-09-04T10:57:42.185Z,51.20
2018-09-04T11:00:10.076Z,49.87
2018-09-04T11:02:38.028Z,50.87
2018-09-04T11:05:05.984Z,51.63
2018-09-04T11:07:33.977Z,51.97
2018-09-04T11:10:02.091Z,48.57
2018-09-04T11:12:29.868Z,48.00
2018-09-04T11:14:57.820Z,45.30
2018-09-04T11:17:25.907Z,44.47
2018-09-04T11:19:53.832Z,46.67
2018-09-04T11:22:22.785Z,47.17
2018-09-04T11:24:50.917Z,43.70
2018-09-04T11:27:19.008Z,52.80
2018-09-04T11:29:47.986Z,41.70
2018-09-04T11:32:16.065Z,41.60
2018-09-04T11:34:55.668Z,50.47
2018-09-04T11:37:23.638Z,42.53
2018-09-04T11:39:51.719Z,40.50
2018-09-04T11:42:19.705Z,41.60
2018-09-04T11:44:47.653Z,40.10
2018-09-04T11:47:15.607Z,37.47
2018-09-04T11:49:43.563Z,34.20
2018-09-04T11:52:11.605Z,36.27
2018-09-04T11:54:39.578Z,36.60
2018-09-04T11:57:07.532Z,41.97
2018-09-04T11:59:37.697Z,40.13
2018-09-04T12:02:06.855Z,38.73
2018-09-04T12:04:34.768Z,39.43
2018-09-04T12:07:02.717Z,35.07
2018-09-04T12:09:30.690Z,38.70
2018-09-04T12:11:58.624Z,30.77
2018-09-04T12:14:30.947Z,35.90
2018-09-04T12:16:58.844Z,31.70
2018-09-04T12:19:28.088Z,35.43
2018-09-04T12:21:56.045Z,38.73
2018-09-04T12:24:24.036Z,39.57
2018-09-04T12:26:52.035Z,36.87
2018-09-04T12:29:20.065Z,34.33
2018-09-04T12:31:48.037Z,34.43
2018-09-04T12:34:16.031Z,35.67
2018-09-04T12:36:43.979Z,30.57
2018-09-04T12:39:11.922Z,28.90
2018-09-04T12:41:39.886Z,25.67
2018-09-04T12:44:07.914Z,24.87
2018-09-04T12:46:36.020Z,27.50
2018-09-04T12:49:04.169Z,28.87
2018-09-04T12:51:34.260Z,28.10
2018-09-04T12:54:04.324Z,26.83
2018-09-04T12:56:32.391Z,32.77
2018-09-04T12:59:00.377Z,29.13
2018-09-04T13:01:28.355Z,30.60
2018-09-04T13:03:56.346Z,27.67
2018-09-04T13:06:24.373Z,27.67
2018-09-04T13:08:52.349Z,26.23
2018-09-04T13:11:20.317Z,29.13
2018-09-04T13:13:48.276Z,26.47
2018-09-04T13:16:16.233Z,32.17
2018-09-04T13:18:44.155Z,27.93
2018-09-04T13:21:12.120Z,27.63
2018-09-04T13:23:40.133Z,29.10
2018-09-04T13:26:08.116Z,29.17
2018-09-04T13:28:36.184Z,30.60
2018-09-04T13:31:04.164Z,26.93
2018-09-04T13:33:33.192Z,30.67
2018-09-04T13:36:01.327Z,32.07
2018-09-04T13:38:29.437Z,32.57
2018-09-04T13:41:02.715Z,29.53
2018-09-04T13:43:30.709Z,32.40
2018-09-04T13:45:58.953Z,29.37
2018-09-04T13:48:27.918Z,31.90
2018-09-04T13:50:56.039Z,31.37
2018-09-04T13:53:23.994Z,30.90
2018-09-04T13:55:52.000Z,26.03
2018-09-04T13:58:19.987Z,31.70
2018-09-04T14:00:47.936Z,31.87
2018-09-04T14:03:15.904Z,33.10
2018-09-04T14:05:43.856Z,29.30
2018-09-04T14:08:11.845Z,30.60
2018-09-04T14:10:39.833Z,30.10
2018-09-04T14:13:07.772Z,28.13
2018-09-04T14:15:35.724Z,23.47
2018-09-04T14:18:03.778Z,22.87
2018-09-04T14:20:31.785Z,20.27
2018-09-04T14:22:59.815Z,19.57
2018-09-04T14:25:27.841Z,22.03
2018-09-04T14:27:55.755Z,19.57
2018-09-04T14:30:23.788Z,20.63
2018-09-04T14:32:52.790Z,20.27
2018-09-04T14:35:20.774Z,21.77
2018-09-04T14:37:48.749Z,20.20
2018-09-04T14:40:16.784Z,19.43
2018-09-04T14:42:44.744Z,19.97
2018-09-04T14:45:13.810Z,23.53
2018-09-04T14:47:41.881Z,21.00
2018-09-04T14:50:10.875Z,21.77
2018-09-04T14:52:38.876Z,20.10
2018-09-04T14:55:06.951Z,18.20
2018-09-04T14:58:08.681Z,19.40
2018-09-04T15:00:36.646Z,21.83
2018-09-04T15:03:04.615Z,20.43
2018-09-04T15:05:32.584Z,20.40
2018-09-04T15:08:01.120Z,19.27
2018-09-04T15:10:29.125Z,20.60
2018-09-04T15:12:57.111Z,20.90
2018-09-04T15:15:26.101Z,20.37
2018-09-04T15:17:54.185Z,20.00
2018-09-04T15:20:22.830Z,19.07
2018-09-04T15:22:50.794Z,19.00
2018-09-04T15:25:18.806Z,19.97
2018-09-04T15:27:46.812Z,18.43
2018-09-04T15:30:15.968Z,17.83
2018-09-04T15:32:44.129Z,18.93
2018-09-04T15:35:12.200Z,22.20
2018-09-04T15:37:40.188Z,19.70
2018-09-04T15:40:08.126Z,24.43
2018-09-04T15:42:36.184Z,22.30
2018-09-04T15:45:04.128Z,21.83
2018-09-04T15:47:32.074Z,22.23
2018-09-04T15:50:00.069Z,26.77
2018-09-04T15:52:28.019Z,33.13
2018-09-04T15:54:56.239Z,33.23
2018-09-04T15:57:24.296Z,38.27
2018-09-04T15:59:52.279Z,39.77
2018-09-04T16:02:20.373Z,38.60
2018-09-04T16:04:48.420Z,35.53
2018-09-04T16:07:16.416Z,39.17
2018-09-04T16:09:44.642Z,43.33
2018-09-04T16:12:12.571Z,40.77
2018-09-04T16:14:40.691Z,40.03
2018-09-04T16:17:08.644Z,43.50
2018-09-04T16:19:36.603Z,37.07
2018-09-04T16:22:04.580Z,41.77
2018-09-04T16:24:32.579Z,34.80
2018-09-04T16:27:05.593Z,45.57
2018-09-04T16:29:33.533Z,49.17
2018-09-04T16:32:01.734Z,43.07
2018-09-04T16:34:31.976Z,48.47
2018-09-04T16:37:00.060Z,52.33
2018-09-04T16:39:28.259Z,47.00
2018-09-04T16:41:56.409Z,46.77
2018-09-04T16:44:24.438Z,41.63
2018-09-04T16:47:00.267Z,47.40
2018-09-04T16:49:28.295Z,43.73
2018-09-04T16:51:58.026Z,45.70
2018-09-04T16:54:29.974Z,43.87
2018-09-04T16:57:01.752Z,43.20
2018-09-04T16:59:30.341Z,47.27
2018-09-04T17:01:58.488Z,46.27
2018-09-04T17:04:26.408Z,48.10
2018-09-04T17:06:55.492Z,48.47
2018-09-04T17:09:24.693Z,43.77
2018-09-04T17:11:52.840Z,42.37
2018-09-04T17:14:22.016Z,41.30
2018-09-04T17:16:50.149Z,42.33
2018-09-04T17:19:18.300Z,43.43
2018-09-04T17:21:46.616Z,49.87
2018-09-04T17:24:22.943Z,48.17
2018-09-04T17:26:51.000Z,53.63
2018-09-04T17:29:19.021Z,42.27
2018-09-04T17:31:47.122Z,47.83
2018-09-04T17:34:17.194Z,46.63
2018-09-04T17:36:48.599Z,49.93
2018-09-04T17:39:16.944Z,53.97
2018-09-04T17:41:45.421Z,59.17
2018-09-04T17:44:13.701Z,63.13
2018-09-04T17:46:46.464Z,62.63
2018-09-04T17:49:24.356Z,61.40
2018-09-04T17:51:57.944Z,60.47
2018-09-04T17:54:31.533Z,70.57
2018-09-04T17:57:00.754Z,64.17
2018-09-04T17:59:30.796Z,68.43
2018-09-04T18:02:03.501Z,71.37
2018-09-04T18:04:31.691Z,76.90
2018-09-04T18:07:00.716Z,68.00
2018-09-04T18:09:28.947Z,67.37
2018-09-04T18:11:58.091Z,71.93
2018-09-04T18:14:26.641Z,62.93
2018-09-04T18:16:54.744Z,65.60
2018-09-04T18:19:23.056Z,68.03
2018-09-04T18:21:54.582Z,68.47
2018-09-04T18:24:34.773Z,65.30
2018-09-04T18:27:02.983Z,71.30
2018-09-04T18:29:31.206Z,70.30
2018-09-04T18:31:59.608Z,68.93
2018-09-04T18:34:27.677Z,58.93
2018-09-04T18:37:05.872Z,67.57
2018-09-04T18:39:34.286Z,65.27
2018-09-04T18:42:02.464Z,72.93
2018-09-04T18:44:30.832Z,67.93
2018-09-04T18:47:00.850Z,73.07
2018-09-04T18:49:29.564Z,69.30
2018-09-04T18:51:57.573Z,72.17
2018-09-04T18:54:25.517Z,71.97
2018-09-04T18:56:53.481Z,66.17
2018-09-04T18:59:21.629Z,69.80
2018-09-04T19:01:49.679Z,71.23
2018-09-04T19:04:18.607Z,60.90
2018-09-04T19:06:46.874Z,67.20
2018-09-04T19:09:14.920Z,67.53
2018-09-04T19:11:43.284Z,69.53
2018-09-04T19:14:23.300Z,76.50
2018-09-04T19:16:51.364Z,58.70
2018-09-04T19:19:20.321Z,68.30
2018-09-04T19:21:53.428Z,69.33
2018-09-04T19:24:25.112Z,66.63
2018-09-04T19:26:53.648Z,62.00
2018-09-04T19:29:21.697Z,62.90
2018-09-04T19:31:49.694Z,62.10
2018-09-04T19:34:17.808Z,66.83
2018-09-04T19:36:50.554Z,66.03
2018-09-04T19:39:18.895Z,71.67
2018-09-04T19:41:47.444Z,66.90
2018-09-04T19:44:17.763Z,72.23
2018-09-04T19:46:45.936Z,75.80
2018-09-04T19:49:14.335Z,70.90
2018-09-04T19:51:42.351Z,77.73
2018-09-04T19:54:10.899Z,71.70
2018-09-04T19:56:39.008Z,76.43
2018-09-04T19:59:12.061Z,66.93
2018-09-04T20:01:41.823Z,71.27
2018-09-04T20:04:09.879Z,77.43
2018-09-04T20:06:40.778Z,85.95
2018-09-04T20:09:09.845Z,74.20
2018-09-04T20:11:38.173Z,73.07
2018-09-04T20:14:07.249Z,72.20
2018-09-04T20:16:35.428Z,69.87
2018-09-04T20:19:03.413Z,70.17
2018-09-04T20:21:31.601Z,70.53
2018-09-04T20:24:02.869Z,64.77
2018-09-04T20:26:31.211Z,74.70
2018-09-04T20:29:00.390Z,66.37
2018-09-04T20:31:28.463Z,67.67
2018-09-04T20:33:58.639Z,70.47
2018-09-04T20:36:26.728Z,62.90
2018-09-04T20:38:55.766Z,67.33
2018-09-04T20:41:23.938Z,57.83
2018-09-04T20:43:52.102Z,67.47
2018-09-04T20:46:20.270Z,70.23
2018-09-04T20:48:48.407Z,66.00
2018-09-04T20:51:16.424Z,67.83
2018-09-04T20:53:44.479Z,65.23
2018-09-04T20:56:12.784Z,73.27
2018-09-04T20:58:46.423Z,66.10
2018-09-04T21:01:20.111Z,62.30
2018-09-04T21:03:53.603Z,60.70
2018-09-04T21:06:27.116Z,62.97
2018-09-04T21:09:02.435Z,59.17
2018-09-04T21:11:32.386Z,61.20
2018-09-04T21:14:00.324Z,64.07
2018-09-04T21:16:28.264Z,65.10
2018-09-04T21:18:56.243Z,72.60
2018-09-04T21:21:24.180Z,77.20
2018-09-04T21:23:52.179Z,75.63
2018-09-04T21:26:20.236Z,71.07
2018-09-04T21:28:48.170Z,73.10
2018-09-04T21:31:16.170Z,71.90
2018-09-04T21:33:44.116Z,76.57
2018-09-04T21:36:12.052Z,77.87
2018-09-04T21:38:40.051Z,92.23
2018-09-04T21:41:08.011Z,83.57
2018-09-04T21:43:35.952Z,83.47
2018-09-04T21:46:03.908Z,76.63
2018-09-04T21:48:31.860Z,76.83
2018-09-04T21:50:59.808Z,76.70
2018-09-04T21:53:27.741Z,78.80
2018-09-04T21:55:55.713Z,85.40
2018-09-04T21:58:23.663Z,73.30
2018-09-04T22:00:51.663Z,71.97
2018-09-04T22:03:19.621Z,73.53
2018-09-04T22:05:47.532Z,86.90
2018-09-04T22:08:15.486Z,85.93
2018-09-04T22:10:43.508Z,89.83
2018-09-04T22:13:11.527Z,84.13
2018-09-04T22:15:39.469Z,82.87
2018-09-04T22:18:07.453Z,82.93
2018-09-04T22:20:35.412Z,91.83
2018-09-04T22:23:03.376Z,75.57
2018-09-04T22:25:31.511Z,76.70
2018-09-04T22:27:59.528Z,80.43
2018-09-04T22:30:27.512Z,76.67
2018-09-04T22:32:56.016Z,80.23
2018-09-04T22:35:23.957Z,79.77
2018-09-04T22:37:51.896Z,82.97
2018-09-04T22:40:19.815Z,82.10
2018-09-04T22:42:47.759Z,83.80
2018-09-04T22:45:15.708Z,81.27
2018-09-04T22:47:43.688Z,85.77
2018-09-04T22:50:17.075Z,93.70
2018-09-04T22:52:45.045Z,84.90
2018-09-04T22:55:13.676Z,92.67
2018-09-04T22:57:42.272Z,95.40
2018-09-04T23:00:11.052Z,92.67
2018-09-04T23:02:38.989Z,92.07
2018-09-04T23:05:06.940Z,95.00
2018-09-04T23:07:34.916Z,92.87
2018-09-04T23:10:02.887Z,100.07
2018-09-04T23:12:30.881Z,116.60
2018-09-04T23:14:58.880Z,96.93
2018-09-04T23:17:27.167Z,114.60
2018-09-04T23:19:55.104Z,123.27
2018-09-04T23:22:23.056Z,100.97
2018-09-04T23:24:51.096Z,113.13
2018-09-04T23:27:19.029Z,113.80
2018-09-04T23:29:47.012Z,110.47
2018-09-04T23:32:14.966Z,116.77
2018-09-04T23:34:42.973Z,110.87
2018-09-04T23:37:10.945Z,114.67
2018-09-04T23:39:38.892Z,126.17
2018-09-04T23:42:06.857Z,119.17
2018-09-04T23:44:34.821Z,120.03
2018-09-04T23:47:02.874Z,106.57
2018-09-04T23:49:30.840Z,116.83
2018-09-04T23:51:58.795Z,126.50
2018-09-04T23:54:27.201Z,106.60
2018-09-04T23:56:55.432Z,108.40
2018-09-04T23:59:23.383Z,122.37
